Latakia, Turkey
Current Conditions -  °F | °C
As of 8:00 PM on Thursday 30 Oct 2014 (Local Time) from OSLK Reporting Station
Thunderstorm Thunderstorm  
Wind Chill: 63°   Ceiling: 10000
Heat Index: 63°   Visibility: 4mi
Dew Point: 61°   Wind: 2mph
Humidity: 94%   Direction: 80°E
Pressure: 29.91"   Gusts: NA
Location:  35.52°N, 35.78°E
Report Text: OSLK 301700Z 08002KT 7000 TS -RA SCT026CB SCT030 BKN100 17/16 Q1013
Loading
Personal Weather Stations






























Interactive Weather Map
Tropical Storm Tracking
New forecast layout! Learn more

10-Day Weather Forecast

Advertisements
Track Severe Weather on mobile